sensor_id;sensor_type;location;lat;lon;timestamp;P1;durP1;ratioP1;P2;durP2;ratioP2
20814;SDS011;10568;48.176;16.316;2022-12-11T00:01:17;19.20;;;7.13;;
20814;SDS011;10568;48.176;16.316;2022-12-11T00:03:44;17.17;;;8.17;;
20814;SDS011;10568;48.176;16.316;2022-12-11T00:06:12;16.50;;;7.67;;
20814;SDS011;10568;48.176;16.316;2022-12-11T00:08:39;20.87;;;8.00;;
20814;SDS011;10568;48.176;16.316;2022-12-11T00:11:08;21.37;;;7.53;;
20814;SDS011;10568;48.176;16.316;2022-12-11T00:13:37;20.50;;;7.47;;
20814;SDS011;10568;48.176;16.316;2022-12-11T00:16:03;17.90;;;8.23;;
20814;SDS011;10568;48.176;16.316;2022-12-11T00:18:29;12.90;;;5.97;;
20814;SDS011;10568;48.176;16.316;2022-12-11T00:20:58;19.10;;;7.77;;
20814;SDS011;10568;48.176;16.316;2022-12-11T00:23:25;20.17;;;7.93;;
20814;SDS011;10568;48.176;16.316;2022-12-11T00:25:51;14.27;;;6.87;;
20814;SDS011;10568;48.176;16.316;2022-12-11T00:28:17;19.33;;;8.13;;
20814;SDS011;10568;48.176;16.316;2022-12-11T00:30:43;14.63;;;6.30;;
20814;SDS011;10568;48.176;16.316;2022-12-11T00:33:09;16.13;;;7.47;;
20814;SDS011;10568;48.176;16.316;2022-12-11T00:35:39;11.73;;;5.63;;
20814;SDS011;10568;48.176;16.316;2022-12-11T00:38:07;17.07;;;7.27;;
20814;SDS011;10568;48.176;16.316;2022-12-11T00:40:37;20.23;;;7.83;;
20814;SDS011;10568;48.176;16.316;2022-12-11T00:43:03;16.77;;;7.30;;
20814;SDS011;10568;48.176;16.316;2022-12-11T00:45:29;16.00;;;7.20;;
20814;SDS011;10568;48.176;16.316;2022-12-11T00:47:55;16.30;;;7.13;;
20814;SDS011;10568;48.176;16.316;2022-12-11T00:50:21;14.17;;;5.57;;
20814;SDS011;10568;48.176;16.316;2022-12-11T00:52:47;12.70;;;6.23;;
20814;SDS011;10568;48.176;16.316;2022-12-11T00:55:12;13.83;;;6.83;;
20814;SDS011;10568;48.176;16.316;2022-12-11T00:57:38;15.30;;;7.40;;
20814;SDS011;10568;48.176;16.316;2022-12-11T01:00:04;18.70;;;7.10;;
20814;SDS011;10568;48.176;16.316;2022-12-11T01:02:31;14.70;;;6.60;;
20814;SDS011;10568;48.176;16.316;2022-12-11T01:04:58;14.37;;;7.00;;
20814;SDS011;10568;48.176;16.316;2022-12-11T01:07:23;11.33;;;5.80;;
20814;SDS011;10568;48.176;16.316;2022-12-11T01:09:49;13.40;;;5.70;;
20814;SDS011;10568;48.176;16.316;2022-12-11T01:12:33;14.27;;;7.17;;
20814;SDS011;10568;48.176;16.316;2022-12-11T01:14:59;15.57;;;7.53;;
20814;SDS011;10568;48.176;16.316;2022-12-11T01:17:25;15.63;;;7.00;;
20814;SDS011;10568;48.176;16.316;2022-12-11T01:19:54;17.40;;;8.17;;
20814;SDS011;10568;48.176;16.316;2022-12-11T01:22:19;19.00;;;7.57;;
20814;SDS011;10568;48.176;16.316;2022-12-11T01:24:45;13.93;;;6.43;;
20814;SDS011;10568;48.176;16.316;2022-12-11T01:27:11;11.60;;;6.67;;
20814;SDS011;10568;48.176;16.316;2022-12-11T01:29:37;16.23;;;7.20;;
20814;SDS011;10568;48.176;16.316;2022-12-11T01:32:03;16.67;;;7.30;;
20814;SDS011;10568;48.176;16.316;2022-12-11T01:34:29;15.57;;;7.87;;
20814;SDS011;10568;48.176;16.316;2022-12-11T01:36:56;12.97;;;7.20;;
20814;SDS011;10568;48.176;16.316;2022-12-11T01:39:22;16.73;;;6.93;;
20814;SDS011;10568;48.176;16.316;2022-12-11T01:41:47;15.30;;;7.03;;
20814;SDS011;10568;48.176;16.316;2022-12-11T01:46:39;15.23;;;7.23;;
20814;SDS011;10568;48.176;16.316;2022-12-11T01:49:06;13.90;;;6.00;;
20814;SDS011;10568;48.176;16.316;2022-12-11T01:51:46;12.90;;;7.10;;
20814;SDS011;10568;48.176;16.316;2022-12-11T01:54:14;12.73;;;6.00;;
20814;SDS011;10568;48.176;16.316;2022-12-11T01:56:42;15.00;;;7.10;;
20814;SDS011;10568;48.176;16.316;2022-12-11T01:59:10;15.17;;;6.27;;
20814;SDS011;10568;48.176;16.316;2022-12-11T02:01:40;14.47;;;7.37;;
20814;SDS011;10568;48.176;16.316;2022-12-11T02:04:10;19.90;;;7.93;;
20814;SDS011;10568;48.176;16.316;2022-12-11T02:06:39;15.57;;;7.27;;
20814;SDS011;10568;48.176;16.316;2022-12-11T02:09:14;13.53;;;6.53;;
20814;SDS011;10568;48.176;16.316;2022-12-11T02:14:30;16.97;;;6.83;;
20814;SDS011;10568;48.176;16.316;2022-12-11T02:27:44;14.13;;;7.03;;
20814;SDS011;10568;48.176;16.316;2022-12-11T02:30:20;10.93;;;4.73;;
20814;SDS011;10568;48.176;16.316;2022-12-11T02:35:31;14.93;;;7.13;;
20814;SDS011;10568;48.176;16.316;2022-12-11T02:38:05;14.30;;;6.30;;
20814;SDS011;10568;48.176;16.316;2022-12-11T02:40:52;13.43;;;5.93;;
20814;SDS011;10568;48.176;16.316;2022-12-11T02:43:22;12.20;;;5.47;;
20814;SDS011;10568;48.176;16.316;2022-12-11T02:45:49;13.17;;;6.57;;
20814;SDS011;10568;48.176;16.316;2022-12-11T02:48:16;11.17;;;5.97;;
20814;SDS011;10568;48.176;16.316;2022-12-11T02:50:45;12.87;;;5.93;;
20814;SDS011;10568;48.176;16.316;2022-12-11T02:53:14;12.03;;;6.57;;
20814;SDS011;10568;48.176;16.316;2022-12-11T02:55:44;13.70;;;6.53;;
20814;SDS011;10568;48.176;16.316;2022-12-11T02:58:17;9.37;;;4.93;;
20814;SDS011;10568;48.176;16.316;2022-12-11T03:00:49;16.90;;;6.23;;
20814;SDS011;10568;48.176;16.316;2022-12-11T03:03:15;11.80;;;5.37;;
20814;SDS011;10568;48.176;16.316;2022-12-11T03:05:41;11.63;;;5.67;;
20814;SDS011;10568;48.176;16.316;2022-12-11T03:08:07;12.43;;;6.10;;
20814;SDS011;10568;48.176;16.316;2022-12-11T03:10:33;7.33;;;4.50;;
20814;SDS011;10568;48.176;16.316;2022-12-11T03:12:59;12.17;;;5.37;;
20814;SDS011;10568;48.176;16.316;2022-12-11T03:15:43;14.20;;;5.87;;
20814;SDS011;10568;48.176;16.316;2022-12-11T03:18:29;9.67;;;5.30;;
20814;SDS011;10568;48.176;16.316;2022-12-11T03:24:27;11.20;;;5.37;;
20814;SDS011;10568;48.176;16.316;2022-12-11T03:26:49;11.93;;;5.00;;
20814;SDS011;10568;48.176;16.316;2022-12-11T03:29:22;12.47;;;4.97;;
20814;SDS011;10568;48.176;16.316;2022-12-11T03:31:58;14.17;;;5.00;;
20814;SDS011;10568;48.176;16.316;2022-12-11T03:34:49;9.50;;;4.73;;
20814;SDS011;10568;48.176;16.316;2022-12-11T03:37:18;12.43;;;5.83;;
20814;SDS011;10568;48.176;16.316;2022-12-11T03:39:47;10.90;;;5.03;;
20814;SDS011;10568;48.176;16.316;2022-12-11T03:42:16;6.47;;;3.47;;
20814;SDS011;10568;48.176;16.316;2022-12-11T03:44:46;10.37;;;5.97;;
20814;SDS011;10568;48.176;16.316;2022-12-11T03:47:14;9.83;;;4.93;;
20814;SDS011;10568;48.176;16.316;2022-12-11T03:49:45;10.00;;;4.77;;
20814;SDS011;10568;48.176;16.316;2022-12-11T03:52:13;9.30;;;5.07;;
20814;SDS011;10568;48.176;16.316;2022-12-11T03:54:40;8.07;;;4.53;;
20814;SDS011;10568;48.176;16.316;2022-12-11T03:57:08;10.30;;;5.10;;
20814;SDS011;10568;48.176;16.316;2022-12-11T03:59:36;11.60;;;4.70;;
20814;SDS011;10568;48.176;16.316;2022-12-11T04:02:02;12.13;;;6.07;;
20814;SDS011;10568;48.176;16.316;2022-12-11T04:04:38;10.90;;;5.13;;
20814;SDS011;10568;48.176;16.316;2022-12-11T04:07:05;12.43;;;5.57;;
20814;SDS011;10568;48.176;16.316;2022-12-11T04:09:32;9.10;;;4.43;;
20814;SDS011;10568;48.176;16.316;2022-12-11T04:11:58;11.67;;;5.07;;
20814;SDS011;10568;48.176;16.316;2022-12-11T04:14:24;11.83;;;5.53;;
20814;SDS011;10568;48.176;16.316;2022-12-11T04:17:08;13.37;;;6.13;;
20814;SDS011;10568;48.176;16.316;2022-12-11T04:19:34;10.90;;;4.93;;
20814;SDS011;10568;48.176;16.316;2022-12-11T04:22:19;8.80;;;4.93;;
20814;SDS011;10568;48.176;16.316;2022-12-11T04:24:51;11.67;;;5.87;;
20814;SDS011;10568;48.176;16.316;2022-12-11T04:27:17;8.43;;;4.47;;
20814;SDS011;10568;48.176;16.316;2022-12-11T04:30:04;10.77;;;5.00;;
20814;SDS011;10568;48.176;16.316;2022-12-11T04:32:31;12.70;;;5.47;;
20814;SDS011;10568;48.176;16.316;2022-12-11T04:34:57;10.90;;;5.03;;
20814;SDS011;10568;48.176;16.316;2022-12-11T04:37:23;11.40;;;5.43;;
20814;SDS011;10568;48.176;16.316;2022-12-11T04:39:49;12.30;;;6.03;;
20814;SDS011;10568;48.176;16.316;2022-12-11T04:42:14;6.97;;;4.43;;
20814;SDS011;10568;48.176;16.316;2022-12-11T04:44:40;8.73;;;4.70;;
20814;SDS011;10568;48.176;16.316;2022-12-11T04:47:07;10.20;;;5.40;;
20814;SDS011;10568;48.176;16.316;2022-12-11T04:49:33;11.93;;;5.23;;
20814;SDS011;10568;48.176;16.316;2022-12-11T04:51:59;12.23;;;5.97;;
20814;SDS011;10568;48.176;16.316;2022-12-11T04:54:24;10.63;;;5.00;;
20814;SDS011;10568;48.176;16.316;2022-12-11T04:56:50;11.40;;;5.43;;
20814;SDS011;10568;48.176;16.316;2022-12-11T04:59:16;9.10;;;4.63;;
20814;SDS011;10568;48.176;16.316;2022-12-11T05:01:41;10.90;;;4.87;;
20814;SDS011;10568;48.176;16.316;2022-12-11T05:04:07;11.90;;;5.33;;
20814;SDS011;10568;48.176;16.316;2022-12-11T05:06:33;11.17;;;5.17;;
20814;SDS011;10568;48.176;16.316;2022-12-11T05:08:58;7.90;;;4.00;;
20814;SDS011;10568;48.176;16.316;2022-12-11T05:11:24;12.97;;;5.83;;
20814;SDS011;10568;48.176;16.316;2022-12-11T05:13:50;8.80;;;4.63;;
20814;SDS011;10568;48.176;16.316;2022-12-11T05:16:16;8.60;;;4.13;;
20814;SDS011;10568;48.176;16.316;2022-12-11T05:18:42;9.27;;;4.93;;
20814;SDS011;10568;48.176;16.316;2022-12-11T05:21:12;9.97;;;4.73;;
20814;SDS011;10568;48.176;16.316;2022-12-11T05:23:39;13.90;;;5.53;;
20814;SDS011;10568;48.176;16.316;2022-12-11T05:26:07;8.87;;;5.47;;
20814;SDS011;10568;48.176;16.316;2022-12-11T05:28:37;7.63;;;4.63;;
20814;SDS011;10568;48.176;16.316;2022-12-11T05:31:05;9.13;;;4.73;;
20814;SDS011;10568;48.176;16.316;2022-12-11T05:33:38;8.67;;;4.80;;
20814;SDS011;10568;48.176;16.316;2022-12-11T05:36:05;7.20;;;4.33;;
20814;SDS011;10568;48.176;16.316;2022-12-11T05:38:31;8.67;;;3.90;;
20814;SDS011;10568;48.176;16.316;2022-12-11T05:40:58;10.00;;;5.07;;
20814;SDS011;10568;48.176;16.316;2022-12-11T05:43:25;11.33;;;5.03;;
20814;SDS011;10568;48.176;16.316;2022-12-11T05:45:51;7.20;;;4.57;;
20814;SDS011;10568;48.176;16.316;2022-12-11T05:48:17;10.70;;;5.07;;
20814;SDS011;10568;48.176;16.316;2022-12-11T05:50:43;8.60;;;4.43;;
20814;SDS011;10568;48.176;16.316;2022-12-11T05:53:09;11.93;;;5.43;;
20814;SDS011;10568;48.176;16.316;2022-12-11T05:55:35;9.20;;;5.40;;
20814;SDS011;10568;48.176;16.316;2022-12-11T05:58:01;9.30;;;4.90;;
20814;SDS011;10568;48.176;16.316;2022-12-11T06:00:27;8.00;;;4.50;;
20814;SDS011;10568;48.176;16.316;2022-12-11T06:02:53;14.00;;;5.47;;
20814;SDS011;10568;48.176;16.316;2022-12-11T06:05:18;10.77;;;5.17;;
20814;SDS011;10568;48.176;16.316;2022-12-11T06:07:44;7.80;;;4.23;;
20814;SDS011;10568;48.176;16.316;2022-12-11T06:10:10;8.77;;;4.30;;
20814;SDS011;10568;48.176;16.316;2022-12-11T06:12:35;9.87;;;4.40;;
20814;SDS011;10568;48.176;16.316;2022-12-11T06:15:01;8.27;;;4.50;;
20814;SDS011;10568;48.176;16.316;2022-12-11T06:17:29;11.27;;;4.97;;
20814;SDS011;10568;48.176;16.316;2022-12-11T06:19:55;10.33;;;5.23;;
20814;SDS011;10568;48.176;16.316;2022-12-11T06:22:21;8.67;;;4.90;;
20814;SDS011;10568;48.176;16.316;2022-12-11T06:24:46;10.33;;;4.90;;
20814;SDS011;10568;48.176;16.316;2022-12-11T06:27:12;9.83;;;4.40;;
20814;SDS011;10568;48.176;16.316;2022-12-11T06:29:38;7.83;;;4.17;;
20814;SDS011;10568;48.176;16.316;2022-12-11T06:32:03;8.13;;;4.57;;
20814;SDS011;10568;48.176;16.316;2022-12-11T06:34:29;7.93;;;4.17;;
20814;SDS011;10568;48.176;16.316;2022-12-11T06:36:55;8.23;;;4.43;;
20814;SDS011;10568;48.176;16.316;2022-12-11T06:39:21;10.10;;;4.27;;
20814;SDS011;10568;48.176;16.316;2022-12-11T06:41:46;9.97;;;4.23;;
20814;SDS011;10568;48.176;16.316;2022-12-11T06:44:12;9.23;;;4.90;;
20814;SDS011;10568;48.176;16.316;2022-12-11T06:46:38;8.93;;;4.13;;
20814;SDS011;10568;48.176;16.316;2022-12-11T06:49:04;8.33;;;3.60;;
20814;SDS011;10568;48.176;16.316;2022-12-11T06:51:29;11.40;;;5.23;;
20814;SDS011;10568;48.176;16.316;2022-12-11T06:53:56;7.60;;;4.00;;
20814;SDS011;10568;48.176;16.316;2022-12-11T06:56:23;6.60;;;3.80;;
20814;SDS011;10568;48.176;16.316;2022-12-11T06:58:49;8.03;;;4.13;;
20814;SDS011;10568;48.176;16.316;2022-12-11T07:01:19;7.07;;;4.40;;
20814;SDS011;10568;48.176;16.316;2022-12-11T07:03:47;6.70;;;4.20;;
20814;SDS011;10568;48.176;16.316;2022-12-11T07:06:14;10.00;;;5.20;;
20814;SDS011;10568;48.176;16.316;2022-12-11T07:08:40;11.20;;;5.13;;
20814;SDS011;10568;48.176;16.316;2022-12-11T07:11:07;6.80;;;4.30;;
20814;SDS011;10568;48.176;16.316;2022-12-11T07:13:34;8.30;;;4.37;;
20814;SDS011;10568;48.176;16.316;2022-12-11T07:16:00;9.70;;;4.73;;
20814;SDS011;10568;48.176;16.316;2022-12-11T07:18:29;9.93;;;4.87;;
20814;SDS011;10568;48.176;16.316;2022-12-11T07:20:58;5.80;;;3.10;;
20814;SDS011;10568;48.176;16.316;2022-12-11T07:23:25;8.63;;;4.27;;
20814;SDS011;10568;48.176;16.316;2022-12-11T07:25:52;8.50;;;4.60;;
20814;SDS011;10568;48.176;16.316;2022-12-11T07:28:18;6.50;;;4.10;;
20814;SDS011;10568;48.176;16.316;2022-12-11T07:30:44;8.53;;;3.97;;
20814;SDS011;10568;48.176;16.316;2022-12-11T07:33:10;7.30;;;3.70;;
20814;SDS011;10568;48.176;16.316;2022-12-11T07:35:36;7.23;;;4.67;;
20814;SDS011;10568;48.176;16.316;2022-12-11T07:38:01;7.40;;;4.57;;
20814;SDS011;10568;48.176;16.316;2022-12-11T07:40:27;9.17;;;3.57;;
20814;SDS011;10568;48.176;16.316;2022-12-11T07:42:53;8.43;;;4.63;;
20814;SDS011;10568;48.176;16.316;2022-12-11T07:45:19;8.10;;;4.23;;
20814;SDS011;10568;48.176;16.316;2022-12-11T07:47:45;9.53;;;4.13;;
20814;SDS011;10568;48.176;16.316;2022-12-11T07:50:10;7.13;;;3.20;;
20814;SDS011;10568;48.176;16.316;2022-12-11T07:52:36;10.50;;;4.43;;
20814;SDS011;10568;48.176;16.316;2022-12-11T07:55:02;6.03;;;3.77;;
20814;SDS011;10568;48.176;16.316;2022-12-11T07:57:28;6.33;;;3.50;;
20814;SDS011;10568;48.176;16.316;2022-12-11T07:59:54;6.33;;;3.33;;
20814;SDS011;10568;48.176;16.316;2022-12-11T08:02:20;7.27;;;3.90;;
20814;SDS011;10568;48.176;16.316;2022-12-11T08:04:46;6.10;;;3.43;;
20814;SDS011;10568;48.176;16.316;2022-12-11T08:07:12;7.10;;;4.00;;
20814;SDS011;10568;48.176;16.316;2022-12-11T08:09:37;6.10;;;3.50;;
20814;SDS011;10568;48.176;16.316;2022-12-11T08:12:04;8.77;;;4.30;;
20814;SDS011;10568;48.176;16.316;2022-12-11T08:14:30;4.37;;;3.37;;
20814;SDS011;10568;48.176;16.316;2022-12-11T08:16:56;4.87;;;3.10;;
20814;SDS011;10568;48.176;16.316;2022-12-11T08:19:24;7.90;;;3.73;;
20814;SDS011;10568;48.176;16.316;2022-12-11T08:21:50;3.77;;;2.43;;
20814;SDS011;10568;48.176;16.316;2022-12-11T08:24:16;6.07;;;3.87;;
20814;SDS011;10568;48.176;16.316;2022-12-11T08:26:44;5.73;;;3.57;;
20814;SDS011;10568;48.176;16.316;2022-12-11T08:29:11;7.97;;;3.87;;
20814;SDS011;10568;48.176;16.316;2022-12-11T08:31:38;8.17;;;4.13;;
20814;SDS011;10568;48.176;16.316;2022-12-11T08:34:05;6.27;;;3.53;;
20814;SDS011;10568;48.176;16.316;2022-12-11T08:36:31;5.27;;;3.03;;
20814;SDS011;10568;48.176;16.316;2022-12-11T08:38:57;5.13;;;3.83;;
20814;SDS011;10568;48.176;16.316;2022-12-11T08:41:24;6.20;;;3.50;;
20814;SDS011;10568;48.176;16.316;2022-12-11T08:43:52;5.63;;;3.20;;
20814;SDS011;10568;48.176;16.316;2022-12-11T08:46:20;6.90;;;3.00;;
20814;SDS011;10568;48.176;16.316;2022-12-11T08:48:48;6.93;;;3.23;;
20814;SDS011;10568;48.176;16.316;2022-12-11T08:51:15;5.70;;;3.07;;
20814;SDS011;10568;48.176;16.316;2022-12-11T08:53:45;5.77;;;3.37;;
20814;SDS011;10568;48.176;16.316;2022-12-11T08:56:18;6.27;;;3.57;;
20814;SDS011;10568;48.176;16.316;2022-12-11T08:58:45;6.20;;;3.47;;
20814;SDS011;10568;48.176;16.316;2022-12-11T09:01:13;6.77;;;3.43;;
20814;SDS011;10568;48.176;16.316;2022-12-11T09:03:40;6.93;;;4.00;;
20814;SDS011;10568;48.176;16.316;2022-12-11T09:06:07;6.97;;;3.53;;
20814;SDS011;10568;48.176;16.316;2022-12-11T09:08:35;4.97;;;2.87;;
20814;SDS011;10568;48.176;16.316;2022-12-11T09:11:04;6.17;;;3.37;;
20814;SDS011;10568;48.176;16.316;2022-12-11T09:13:32;6.23;;;3.47;;
20814;SDS011;10568;48.176;16.316;2022-12-11T09:15:58;5.43;;;3.23;;
20814;SDS011;10568;48.176;16.316;2022-12-11T09:18:24;5.37;;;3.00;;
20814;SDS011;10568;48.176;16.316;2022-12-11T09:21:24;8.03;;;4.10;;
20814;SDS011;10568;48.176;16.316;2022-12-11T09:23:44;5.97;;;3.43;;
20814;SDS011;10568;48.176;16.316;2022-12-11T09:26:11;5.23;;;3.53;;
20814;SDS011;10568;48.176;16.316;2022-12-11T09:28:39;7.03;;;4.10;;
20814;SDS011;10568;48.176;16.316;2022-12-11T09:31:09;6.17;;;3.37;;
20814;SDS011;10568;48.176;16.316;2022-12-11T09:33:39;4.67;;;3.33;;
20814;SDS011;10568;48.176;16.316;2022-12-11T09:36:05;4.00;;;2.70;;
20814;SDS011;10568;48.176;16.316;2022-12-11T09:38:32;6.13;;;3.40;;
20814;SDS011;10568;48.176;16.316;2022-12-11T09:40:58;7.83;;;3.53;;
20814;SDS011;10568;48.176;16.316;2022-12-11T09:46:09;4.50;;;2.73;;
20814;SDS011;10568;48.176;16.316;2022-12-11T09:48:38;4.63;;;2.93;;
20814;SDS011;10568;48.176;16.316;2022-12-11T09:51:27;6.10;;;3.30;;
20814;SDS011;10568;48.176;16.316;2022-12-11T09:53:55;6.00;;;3.23;;
20814;SDS011;10568;48.176;16.316;2022-12-11T09:56:32;5.20;;;2.67;;
20814;SDS011;10568;48.176;16.316;2022-12-11T09:59:27;4.83;;;3.47;;
20814;SDS011;10568;48.176;16.316;2022-12-11T10:10:56;5.40;;;3.37;;
20814;SDS011;10568;48.176;16.316;2022-12-11T10:17:27;5.33;;;3.40;;
20814;SDS011;10568;48.176;16.316;2022-12-11T10:19:47;7.40;;;3.37;;
20814;SDS011;10568;48.176;16.316;2022-12-11T10:22:25;6.43;;;3.33;;
20814;SDS011;10568;48.176;16.316;2022-12-11T10:24:55;6.23;;;3.30;;
20814;SDS011;10568;48.176;16.316;2022-12-11T10:27:29;6.40;;;2.73;;
20814;SDS011;10568;48.176;16.316;2022-12-11T10:32:46;5.70;;;3.03;;
20814;SDS011;10568;48.176;16.316;2022-12-11T10:35:39;6.80;;;3.47;;
20814;SDS011;10568;48.176;16.316;2022-12-11T10:38:42;5.30;;;3.00;;
20814;SDS011;10568;48.176;16.316;2022-12-11T10:41:10;3.90;;;2.90;;
20814;SDS011;10568;48.176;16.316;2022-12-11T10:43:39;6.87;;;3.43;;
20814;SDS011;10568;48.176;16.316;2022-12-11T10:46:40;3.60;;;2.60;;
20814;SDS011;10568;48.176;16.316;2022-12-11T10:49:01;4.83;;;3.17;;
20814;SDS011;10568;48.176;16.316;2022-12-11T10:54:00;6.53;;;3.53;;
20814;SDS011;10568;48.176;16.316;2022-12-11T10:56:32;4.73;;;3.97;;
20814;SDS011;10568;48.176;16.316;2022-12-11T10:58:59;6.13;;;3.53;;
20814;SDS011;10568;48.176;16.316;2022-12-11T11:01:26;6.17;;;4.03;;
20814;SDS011;10568;48.176;16.316;2022-12-11T11:03:58;7.87;;;3.57;;
20814;SDS011;10568;48.176;16.316;2022-12-11T11:06:39;5.00;;;3.17;;
20814;SDS011;10568;48.176;16.316;2022-12-11T11:09:21;5.93;;;3.50;;
20814;SDS011;10568;48.176;16.316;2022-12-11T11:11:53;4.73;;;3.07;;
20814;SDS011;10568;48.176;16.316;2022-12-11T11:14:20;7.17;;;3.47;;
20814;SDS011;10568;48.176;16.316;2022-12-11T11:16:49;5.83;;;3.67;;
20814;SDS011;10568;48.176;16.316;2022-12-11T11:21:52;5.83;;;3.73;;
20814;SDS011;10568;48.176;16.316;2022-12-11T11:24:43;7.53;;;3.40;;
20814;SDS011;10568;48.176;16.316;2022-12-11T11:27:30;7.10;;;3.90;;
20814;SDS011;10568;48.176;16.316;2022-12-11T11:30:01;6.07;;;3.70;;
20814;SDS011;10568;48.176;16.316;2022-12-11T11:32:38;8.40;;;3.60;;
20814;SDS011;10568;48.176;16.316;2022-12-11T11:37:37;6.63;;;4.07;;
20814;SDS011;10568;48.176;16.316;2022-12-11T11:40:07;4.40;;;3.17;;
20814;SDS011;10568;48.176;16.316;2022-12-11T11:45:21;6.07;;;3.80;;
20814;SDS011;10568;48.176;16.316;2022-12-11T11:48:01;8.67;;;4.17;;
20814;SDS011;10568;48.176;16.316;2022-12-11T11:50:34;6.27;;;3.43;;
20814;SDS011;10568;48.176;16.316;2022-12-11T11:53:06;6.23;;;3.30;;
20814;SDS011;10568;48.176;16.316;2022-12-11T11:55:53;4.80;;;2.50;;
20814;SDS011;10568;48.176;16.316;2022-12-11T11:58:24;6.27;;;3.53;;
20814;SDS011;10568;48.176;16.316;2022-12-11T12:00:56;4.93;;;2.97;;
20814;SDS011;10568;48.176;16.316;2022-12-11T12:03:22;5.13;;;3.10;;
20814;SDS011;10568;48.176;16.316;2022-12-11T12:08:45;5.70;;;2.97;;
20814;SDS011;10568;48.176;16.316;2022-12-11T12:14:50;5.10;;;2.87;;
20814;SDS011;10568;48.176;16.316;2022-12-11T12:17:31;3.13;;;2.17;;
20814;SDS011;10568;48.176;16.316;2022-12-11T12:30:30;2.83;;;2.27;;
20814;SDS011;10568;48.176;16.316;2022-12-11T12:35:54;4.80;;;2.63;;
20814;SDS011;10568;48.176;16.316;2022-12-11T12:38:51;6.20;;;2.63;;
20814;SDS011;10568;48.176;16.316;2022-12-11T12:41:31;5.90;;;2.87;;
20814;SDS011;10568;48.176;16.316;2022-12-11T12:44:14;5.60;;;3.13;;
20814;SDS011;10568;48.176;16.316;2022-12-11T12:49:16;4.70;;;2.83;;
20814;SDS011;10568;48.176;16.316;2022-12-11T12:51:59;6.10;;;3.63;;
20814;SDS011;10568;48.176;16.316;2022-12-11T12:54:26;6.87;;;3.40;;
20814;SDS011;10568;48.176;16.316;2022-12-11T12:56:53;4.63;;;2.70;;
20814;SDS011;10568;48.176;16.316;2022-12-11T12:59:23;3.60;;;1.97;;
20814;SDS011;10568;48.176;16.316;2022-12-11T13:01:55;4.87;;;2.77;;
20814;SDS011;10568;48.176;16.316;2022-12-11T13:04:28;6.27;;;3.07;;
20814;SDS011;10568;48.176;16.316;2022-12-11T13:07:19;9.07;;;2.97;;
20814;SDS011;10568;48.176;16.316;2022-12-11T13:10:20;4.93;;;3.23;;
20814;SDS011;10568;48.176;16.316;2022-12-11T13:12:49;4.17;;;2.63;;
20814;SDS011;10568;48.176;16.316;2022-12-11T13:15:22;5.77;;;2.90;;
20814;SDS011;10568;48.176;16.316;2022-12-11T13:17:54;9.23;;;3.20;;
20814;SDS011;10568;48.176;16.316;2022-12-11T13:20:21;5.90;;;3.23;;
20814;SDS011;10568;48.176;16.316;2022-12-11T13:23:34;5.83;;;3.20;;
20814;SDS011;10568;48.176;16.316;2022-12-11T13:25:47;6.27;;;3.00;;
20814;SDS011;10568;48.176;16.316;2022-12-11T13:28:25;5.40;;;2.97;;
20814;SDS011;10568;48.176;16.316;2022-12-11T13:31:00;4.40;;;2.97;;
20814;SDS011;10568;48.176;16.316;2022-12-11T13:33:29;6.43;;;2.93;;
20814;SDS011;10568;48.176;16.316;2022-12-11T13:41:27;5.07;;;2.50;;
20814;SDS011;10568;48.176;16.316;2022-12-11T13:43:57;5.23;;;2.90;;
20814;SDS011;10568;48.176;16.316;2022-12-11T13:46:26;6.73;;;4.43;;
20814;SDS011;10568;48.176;16.316;2022-12-11T13:49:00;6.60;;;4.13;;
20814;SDS011;10568;48.176;16.316;2022-12-11T13:51:29;7.03;;;4.17;;
20814;SDS011;10568;48.176;16.316;2022-12-11T13:54:05;7.13;;;4.60;;
20814;SDS011;10568;48.176;16.316;2022-12-11T13:56:51;7.73;;;4.97;;
20814;SDS011;10568;48.176;16.316;2022-12-11T13:59:41;8.90;;;4.40;;
20814;SDS011;10568;48.176;16.316;2022-12-11T14:02:20;9.90;;;3.93;;
20814;SDS011;10568;48.176;16.316;2022-12-11T14:05:03;7.17;;;4.80;;
20814;SDS011;10568;48.176;16.316;2022-12-11T14:07:32;9.87;;;5.00;;
20814;SDS011;10568;48.176;16.316;2022-12-11T14:10:05;7.90;;;4.77;;
20814;SDS011;10568;48.176;16.316;2022-12-11T14:12:41;7.27;;;4.53;;
20814;SDS011;10568;48.176;16.316;2022-12-11T14:15:14;8.77;;;4.27;;
20814;SDS011;10568;48.176;16.316;2022-12-11T14:17:40;7.43;;;5.30;;
20814;SDS011;10568;48.176;16.316;2022-12-11T14:23:06;7.87;;;4.37;;
20814;SDS011;10568;48.176;16.316;2022-12-11T14:25:54;9.30;;;4.80;;
20814;SDS011;10568;48.176;16.316;2022-12-11T14:28:22;7.67;;;4.13;;
20814;SDS011;10568;48.176;16.316;2022-12-11T14:30:52;7.70;;;4.60;;
20814;SDS011;10568;48.176;16.316;2022-12-11T14:33:27;5.60;;;3.90;;
20814;SDS011;10568;48.176;16.316;2022-12-11T14:35:58;10.37;;;4.97;;
20814;SDS011;10568;48.176;16.316;2022-12-11T14:38:29;8.33;;;4.63;;
20814;SDS011;10568;48.176;16.316;2022-12-11T14:41:03;8.93;;;4.40;;
20814;SDS011;10568;48.176;16.316;2022-12-11T14:43:52;7.07;;;3.67;;
20814;SDS011;10568;48.176;16.316;2022-12-11T14:46:25;7.57;;;3.80;;
20814;SDS011;10568;48.176;16.316;2022-12-11T14:49:02;7.07;;;3.53;;
20814;SDS011;10568;48.176;16.316;2022-12-11T14:55:16;6.93;;;3.43;;
20814;SDS011;10568;48.176;16.316;2022-12-11T14:57:59;4.43;;;3.23;;
20814;SDS011;10568;48.176;16.316;2022-12-11T15:00:32;7.20;;;4.37;;
20814;SDS011;10568;48.176;16.316;2022-12-11T15:03:01;5.97;;;3.67;;
20814;SDS011;10568;48.176;16.316;2022-12-11T15:05:46;4.93;;;3.10;;
20814;SDS011;10568;48.176;16.316;2022-12-11T15:08:23;5.07;;;3.20;;
20814;SDS011;10568;48.176;16.316;2022-12-11T15:13:34;5.80;;;3.17;;
20814;SDS011;10568;48.176;16.316;2022-12-11T15:16:03;6.30;;;3.93;;
20814;SDS011;10568;48.176;16.316;2022-12-11T15:18:32;5.07;;;3.67;;
20814;SDS011;10568;48.176;16.316;2022-12-11T15:21:04;10.47;;;3.53;;
20814;SDS011;10568;48.176;16.316;2022-12-11T15:23:55;7.70;;;3.43;;
20814;SDS011;10568;48.176;16.316;2022-12-11T15:26:36;7.47;;;3.63;;
20814;SDS011;10568;48.176;16.316;2022-12-11T15:29:06;7.27;;;3.60;;
20814;SDS011;10568;48.176;16.316;2022-12-11T15:35:22;5.20;;;3.30;;
20814;SDS011;10568;48.176;16.316;2022-12-11T15:37:52;6.00;;;4.10;;
20814;SDS011;10568;48.176;16.316;2022-12-11T15:40:19;6.40;;;3.87;;
20814;SDS011;10568;48.176;16.316;2022-12-11T15:42:45;6.63;;;3.73;;
20814;SDS011;10568;48.176;16.316;2022-12-11T15:45:18;5.17;;;3.40;;
20814;SDS011;10568;48.176;16.316;2022-12-11T15:47:49;5.90;;;3.57;;
20814;SDS011;10568;48.176;16.316;2022-12-11T15:50:20;7.27;;;3.80;;
20814;SDS011;10568;48.176;16.316;2022-12-11T15:52:48;8.17;;;3.90;;
20814;SDS011;10568;48.176;16.316;2022-12-11T15:55:15;5.27;;;3.13;;
20814;SDS011;10568;48.176;16.316;2022-12-11T15:57:55;6.20;;;3.70;;
20814;SDS011;10568;48.176;16.316;2022-12-11T16:00:23;9.03;;;4.10;;
20814;SDS011;10568;48.176;16.316;2022-12-11T16:02:51;8.33;;;4.23;;
20814;SDS011;10568;48.176;16.316;2022-12-11T16:05:17;7.97;;;4.33;;
20814;SDS011;10568;48.176;16.316;2022-12-11T16:07:44;3.90;;;3.37;;
20814;SDS011;10568;48.176;16.316;2022-12-11T16:10:12;7.07;;;3.70;;
20814;SDS011;10568;48.176;16.316;2022-12-11T16:12:40;7.07;;;3.87;;
20814;SDS011;10568;48.176;16.316;2022-12-11T16:15:07;11.43;;;4.90;;
20814;SDS011;10568;48.176;16.316;2022-12-11T16:17:33;10.73;;;5.37;;
20814;SDS011;10568;48.176;16.316;2022-12-11T16:19:59;8.93;;;4.17;;